createdAt,value
2018-10-12T00:00:09.751Z,14.80
2018-10-12T00:02:38.262Z,14.80
2018-10-12T00:05:06.987Z,14.70
2018-10-12T00:07:35.710Z,14.70
2018-10-12T00:10:04.171Z,14.60
2018-10-12T00:12:32.541Z,14.60
2018-10-12T00:15:01.198Z,14.50
2018-10-12T00:17:29.577Z,14.40
2018-10-12T00:19:57.953Z,14.40
2018-10-12T00:22:26.586Z,14.30
2018-10-12T00:24:54.962Z,14.30
2018-10-12T00:27:23.333Z,14.20
2018-10-12T00:29:51.882Z,14.20
2018-10-12T00:32:20.307Z,14.10
2018-10-12T00:34:49.353Z,14.10
2018-10-12T00:37:17.913Z,14.10
2018-10-12T00:39:46.291Z,14.00
2018-10-12T00:42:14.692Z,14.00
2018-10-12T00:44:43.306Z,13.90
2018-10-12T00:47:11.700Z,13.90
2018-10-12T00:49:40.099Z,13.90
2018-10-12T00:52:08.724Z,13.80
2018-10-12T00:54:37.894Z,13.80
2018-10-12T00:57:06.329Z,13.80
2018-10-12T00:59:34.917Z,13.80
2018-10-12T01:02:03.331Z,13.80
2018-10-12T01:04:31.771Z,13.80
2018-10-12T01:09:51.074Z,13.80
2018-10-12T01:12:28.537Z,13.80
2018-10-12T01:14:57.269Z,13.80
2018-10-12T01:17:25.977Z,13.80
2018-10-12T01:19:54.860Z,13.50
2018-10-12T01:22:23.600Z,13.80
2018-10-12T01:24:52.113Z,13.90
2018-10-12T01:27:20.605Z,13.90
2018-10-12T01:29:49.313Z,13.90
2018-10-12T01:32:22.970Z,13.90
2018-10-12T01:34:56.032Z,13.90
2018-10-12T01:37:24.760Z,13.90
2018-10-12T01:39:53.224Z,13.90
2018-10-12T01:42:21.843Z,13.90
2018-10-12T01:44:50.300Z,13.90
2018-10-12T01:47:18.783Z,13.90
2018-10-12T01:49:47.481Z,13.90
2018-10-12T01:52:15.941Z,13.80
2018-10-12T01:54:44.368Z,13.90
2018-10-12T01:57:13.949Z,13.90
2018-10-12T01:59:42.394Z,13.90
2018-10-12T02:02:10.873Z,13.80
2018-10-12T02:04:39.533Z,13.90
2018-10-12T02:07:07.993Z,13.90
2018-10-12T02:09:36.440Z,13.90
2018-10-12T02:12:05.135Z,13.90
2018-10-12T02:14:33.591Z,13.80
2018-10-12T02:17:02.066Z,13.80
2018-10-12T02:19:30.688Z,13.80
2018-10-12T02:21:59.128Z,13.80
2018-10-12T02:24:27.552Z,13.80
2018-10-12T02:26:56.157Z,13.70
2018-10-12T02:29:24.597Z,13.60
2018-10-12T02:31:53.015Z,13.60
2018-10-12T02:34:21.615Z,13.60
2018-10-12T02:36:50.036Z,13.60
2018-10-12T02:39:18.515Z,13.50
2018-10-12T02:41:47.630Z,13.50
2018-10-12T02:44:16.049Z,13.50
2018-10-12T02:46:44.480Z,13.50
2018-10-12T02:49:13.096Z,13.50
2018-10-12T02:51:41.500Z,13.50
2018-10-12T02:54:09.940Z,13.50
2018-10-12T02:56:38.739Z,13.40
2018-10-12T02:59:07.274Z,13.40
2018-10-12T03:01:35.711Z,13.40
2018-10-12T03:04:04.493Z,13.30
2018-10-12T03:06:32.936Z,13.30
2018-10-12T03:09:01.330Z,13.30
2018-10-12T03:11:30.036Z,13.20
2018-10-12T03:13:58.448Z,13.20
2018-10-12T03:16:26.861Z,13.30
2018-10-12T03:18:55.560Z,13.20
2018-10-12T03:21:23.990Z,13.20
2018-10-12T03:23:52.397Z,13.20
2018-10-12T03:26:21.008Z,13.20
2018-10-12T03:28:49.472Z,13.20
2018-10-12T03:31:18.092Z,13.20
2018-10-12T03:33:46.763Z,13.20
2018-10-12T03:36:15.276Z,13.20
2018-10-12T03:38:43.739Z,13.20
2018-10-12T03:41:12.455Z,13.20
2018-10-12T03:43:40.881Z,13.20
2018-10-12T03:46:09.404Z,13.20
2018-10-12T03:48:38.017Z,13.20
2018-10-12T03:51:06.629Z,13.10
2018-10-12T03:53:35.108Z,13.10
2018-10-12T03:56:03.901Z,13.10
2018-10-12T03:58:32.292Z,13.10
2018-10-12T04:01:00.732Z,13.00
2018-10-12T04:03:29.355Z,13.00
2018-10-12T04:05:57.760Z,13.00
2018-10-12T04:08:26.181Z,13.00
2018-10-12T04:10:54.800Z,13.00
2018-10-12T04:13:23.252Z,13.00
2018-10-12T04:15:51.657Z,13.00
2018-10-12T04:18:20.439Z,12.90
2018-10-12T04:20:49.228Z,13.00
2018-10-12T04:23:17.732Z,12.90
2018-10-12T04:25:46.400Z,12.90
2018-10-12T04:28:15.046Z,13.00
2018-10-12T04:30:43.483Z,13.00
2018-10-12T04:33:12.080Z,12.90
2018-10-12T04:35:40.516Z,12.90
2018-10-12T04:38:09.084Z,13.00
2018-10-12T04:41:20.275Z,12.90
2018-10-12T04:43:50.990Z,12.90
2018-10-12T04:46:22.321Z,12.80
2018-10-12T04:48:51.534Z,12.80
2018-10-12T04:51:32.031Z,12.80
2018-10-12T04:54:00.621Z,12.70
2018-10-12T04:56:29.071Z,12.70
2018-10-12T04:58:57.743Z,12.70
2018-10-12T05:01:26.293Z,12.60
2018-10-12T05:03:54.735Z,12.60
2018-10-12T05:06:23.519Z,12.60
2018-10-12T05:08:52.075Z,12.60
2018-10-12T05:11:20.618Z,12.60
2018-10-12T05:13:49.692Z,12.60
2018-10-12T05:16:18.251Z,12.60
2018-10-12T05:18:46.687Z,12.60
2018-10-12T05:21:15.376Z,12.70
2018-10-12T05:23:43.820Z,12.60
2018-10-12T05:26:12.316Z,12.60
2018-10-12T05:28:41.012Z,12.60
2018-10-12T05:31:09.520Z,12.60
2018-10-12T05:33:37.930Z,12.60
2018-10-12T05:36:06.759Z,12.60
2018-10-12T05:38:35.128Z,12.60
2018-10-12T05:41:03.598Z,12.60
2018-10-12T05:43:32.366Z,12.60
2018-10-12T05:46:00.651Z,12.60
2018-10-12T05:48:40.493Z,12.60
2018-10-12T05:51:09.763Z,12.60
2018-10-12T05:53:38.491Z,12.60
2018-10-12T05:56:07.320Z,12.60
2018-10-12T05:58:36.160Z,12.50
2018-10-12T06:01:04.692Z,12.50
2018-10-12T06:03:33.288Z,12.50
2018-10-12T06:06:01.861Z,12.50
2018-10-12T06:08:30.543Z,12.60
2018-10-12T06:10:59.159Z,12.70
2018-10-12T06:13:27.663Z,12.70
2018-10-12T06:15:56.107Z,12.80
2018-10-12T06:18:24.835Z,12.80
2018-10-12T06:20:53.325Z,12.80
2018-10-12T06:23:21.767Z,12.90
2018-10-12T06:25:50.856Z,12.90
2018-10-12T06:28:19.274Z,12.90
2018-10-12T06:30:47.700Z,12.90
2018-10-12T06:33:16.272Z,12.90
2018-10-12T06:35:44.676Z,12.90
2018-10-12T06:38:13.083Z,12.90
2018-10-12T06:40:41.712Z,12.90
2018-10-12T06:43:10.140Z,12.90
2018-10-12T06:45:38.580Z,12.90
2018-10-12T06:48:07.194Z,13.00
2018-10-12T06:50:35.575Z,13.00
2018-10-12T06:53:03.986Z,13.10
2018-10-12T06:55:32.463Z,13.10
2018-10-12T06:58:00.880Z,13.20
2018-10-12T07:00:29.313Z,13.20
2018-10-12T07:02:57.985Z,13.20
2018-10-12T07:05:26.469Z,13.30
2018-10-12T07:07:54.919Z,13.40
2018-10-12T07:10:23.609Z,13.40
2018-10-12T07:12:52.012Z,13.50
2018-10-12T07:15:21.266Z,13.60
2018-10-12T07:17:49.872Z,13.70
2018-10-12T07:20:18.309Z,13.70
2018-10-12T07:22:46.753Z,13.80
2018-10-12T07:25:15.360Z,14.00
2018-10-12T07:27:43.820Z,14.20
2018-10-12T07:30:12.264Z,14.40
2018-10-12T07:32:40.744Z,14.70
2018-10-12T07:35:09.777Z,15.00
2018-10-12T07:37:38.264Z,15.30
2018-10-12T07:40:07.041Z,15.70
2018-10-12T07:42:35.613Z,16.00
2018-10-12T07:45:04.055Z,16.40
2018-10-12T07:47:32.836Z,16.70
2018-10-12T07:50:01.282Z,17.00
2018-10-12T07:52:29.703Z,17.30
2018-10-12T07:54:58.319Z,17.50
2018-10-12T07:57:30.164Z,17.80
2018-10-12T07:59:59.326Z,18.00
2018-10-12T08:02:27.713Z,18.30
2018-10-12T08:04:56.164Z,18.50
2018-10-12T08:07:24.618Z,18.80
2018-10-12T08:09:53.303Z,19.10
2018-10-12T08:12:22.137Z,19.50
2018-10-12T08:14:50.736Z,19.70
2018-10-12T08:17:19.185Z,19.80
2018-10-12T08:19:47.824Z,19.90
2018-10-12T08:22:16.375Z,20.00
2018-10-12T08:24:44.804Z,20.40
2018-10-12T08:27:13.241Z,20.60
2018-10-12T08:29:42.087Z,20.50
2018-10-12T08:32:10.612Z,20.70
2018-10-12T08:34:39.039Z,21.10
2018-10-12T08:37:07.544Z,21.10
2018-10-12T08:39:36.017Z,21.10
2018-10-12T08:42:04.430Z,21.20
2018-10-12T08:44:33.104Z,21.20
2018-10-12T08:47:08.138Z,21.30
2018-10-12T08:49:36.572Z,21.40
2018-10-12T08:52:04.986Z,21.50
2018-10-12T08:54:33.412Z,21.70
2018-10-12T08:57:02.072Z,21.80
2018-10-12T08:59:30.459Z,21.80
2018-10-12T09:01:58.913Z,21.80
2018-10-12T09:04:27.722Z,21.90
2018-10-12T09:06:56.483Z,22.10
2018-10-12T09:09:24.916Z,22.10
2018-10-12T09:11:53.802Z,22.20
2018-10-12T09:14:22.208Z,22.30
2018-10-12T09:16:50.632Z,22.40
2018-10-12T09:19:19.264Z,22.50
2018-10-12T09:21:47.780Z,22.70
2018-10-12T09:24:16.220Z,22.80
2018-10-12T09:26:44.852Z,22.90
2018-10-12T09:29:13.412Z,23.00
2018-10-12T09:31:41.959Z,23.10
2018-10-12T09:34:10.648Z,23.30
2018-10-12T09:36:39.214Z,23.20
2018-10-12T09:39:08.187Z,23.30
2018-10-12T09:41:36.892Z,23.30
2018-10-12T09:44:05.337Z,23.40
2018-10-12T09:46:33.911Z,23.50
2018-10-12T09:49:02.508Z,23.60
2018-10-12T09:51:30.929Z,23.80
2018-10-12T09:53:59.380Z,23.70
2018-10-12T09:56:28.088Z,23.70
2018-10-12T09:58:57.012Z,23.70
2018-10-12T10:03:32.741Z,23.60
2018-10-12T10:06:01.213Z,23.60
2018-10-12T10:08:29.773Z,23.50
2018-10-12T10:10:58.168Z,23.40
2018-10-12T10:13:26.938Z,23.50
2018-10-12T10:15:55.331Z,23.50
2018-10-12T10:18:23.974Z,23.50
2018-10-12T10:20:52.388Z,23.60
2018-10-12T10:23:20.803Z,23.50
2018-10-12T10:25:49.273Z,23.40
2018-10-12T10:28:17.720Z,23.50
2018-10-12T10:30:46.128Z,23.50
2018-10-12T10:33:14.719Z,23.60
2018-10-12T10:35:43.119Z,23.70
2018-10-12T10:38:11.560Z,23.90
2018-10-12T10:40:40.064Z,23.90
2018-10-12T10:43:08.517Z,23.80
2018-10-12T10:45:36.958Z,23.70
2018-10-12T10:48:05.710Z,23.70
2018-10-12T10:50:34.203Z,23.70
2018-10-12T10:53:03.231Z,23.70
2018-10-12T10:55:32.062Z,23.80
2018-10-12T10:58:00.517Z,23.70
2018-10-12T11:00:28.940Z,23.70
2018-10-12T11:02:57.644Z,23.60
2018-10-12T11:05:27.013Z,23.70
2018-10-12T11:07:55.447Z,23.60
2018-10-12T11:10:24.186Z,23.70
2018-10-12T11:12:52.641Z,23.70
2018-10-12T11:15:21.047Z,23.80
2018-10-12T11:17:49.547Z,23.90
2018-10-12T11:20:18.010Z,23.90
2018-10-12T11:22:46.587Z,23.90
2018-10-12T11:25:15.063Z,23.90
2018-10-12T11:27:43.588Z,24.00
2018-10-12T11:30:12.010Z,24.00
2018-10-12T11:32:40.701Z,24.00
2018-10-12T11:35:09.184Z,24.00
2018-10-12T11:37:37.591Z,24.00
2018-10-12T11:40:06.619Z,23.90
2018-10-12T11:42:46.340Z,24.00
2018-10-12T11:45:15.034Z,24.00
2018-10-12T11:47:43.446Z,24.00
2018-10-12T11:50:11.848Z,24.10
2018-10-12T11:52:40.355Z,24.10
2018-10-12T11:55:08.784Z,24.10
2018-10-12T11:57:37.189Z,24.20
2018-10-12T12:00:05.918Z,24.10
2018-10-12T12:02:34.340Z,24.10
2018-10-12T12:05:02.762Z,24.10
2018-10-12T12:07:31.245Z,24.10
2018-10-12T12:09:59.691Z,24.10
2018-10-12T12:12:28.144Z,24.10
2018-10-12T12:14:57.580Z,24.00
2018-10-12T12:17:27.445Z,24.00
2018-10-12T12:19:55.877Z,23.90
2018-10-12T12:22:24.306Z,23.90
2018-10-12T12:24:52.755Z,23.90
2018-10-12T12:27:21.156Z,23.80
2018-10-12T12:29:49.784Z,23.80
2018-10-12T12:32:18.204Z,23.70
2018-10-12T12:34:46.715Z,23.70
2018-10-12T12:37:15.212Z,23.60
2018-10-12T12:39:43.620Z,23.60
2018-10-12T12:42:12.075Z,23.60
2018-10-12T12:44:40.656Z,23.70
2018-10-12T12:47:09.126Z,23.70
2018-10-12T12:49:37.539Z,23.70
2018-10-12T12:52:06.180Z,23.70
2018-10-12T12:54:34.574Z,23.70
2018-10-12T12:57:03.044Z,23.70
2018-10-12T12:59:31.885Z,23.70
2018-10-12T13:02:00.331Z,23.60
2018-10-12T13:04:28.762Z,23.70
2018-10-12T13:06:58.176Z,23.70
2018-10-12T13:09:26.616Z,23.70
2018-10-12T13:11:55.046Z,23.70
2018-10-12T13:14:23.687Z,23.60
2018-10-12T13:16:52.112Z,23.60
2018-10-12T13:19:20.599Z,23.60
2018-10-12T13:21:49.056Z,23.70
2018-10-12T13:24:17.947Z,23.70
2018-10-12T13:26:46.384Z,23.70
2018-10-12T13:29:15.040Z,23.70
2018-10-12T13:31:43.583Z,23.70
2018-10-12T13:34:12.048Z,23.70
2018-10-12T13:36:40.533Z,23.70
2018-10-12T13:39:10.693Z,23.70
2018-10-12T13:41:39.408Z,23.70
2018-10-12T13:44:08.490Z,23.70
2018-10-12T13:46:37.173Z,23.70
2018-10-12T13:49:05.784Z,23.70
2018-10-12T13:51:34.484Z,23.70
2018-10-12T13:54:02.922Z,23.70
2018-10-12T13:56:31.323Z,23.70
2018-10-12T13:58:59.832Z,23.70
2018-10-12T14:01:28.660Z,23.70
2018-10-12T14:03:57.076Z,23.70
2018-10-12T14:06:25.542Z,23.70
2018-10-12T14:08:53.974Z,23.60
2018-10-12T14:11:22.404Z,23.60
2018-10-12T14:13:51.016Z,23.60
2018-10-12T14:16:19.412Z,23.60
2018-10-12T14:18:48.029Z,23.60
2018-10-12T14:21:16.424Z,23.60
2018-10-12T14:23:44.836Z,23.50
2018-10-12T14:26:13.295Z,23.60
2018-10-12T14:28:41.881Z,23.60
2018-10-12T14:31:10.332Z,23.50
2018-10-12T14:33:38.753Z,23.50
2018-10-12T14:36:07.371Z,23.50
2018-10-12T14:38:35.848Z,23.50
2018-10-12T14:41:04.304Z,23.50
2018-10-12T14:43:32.867Z,23.50
2018-10-12T14:46:01.301Z,23.50
2018-10-12T14:48:29.711Z,23.40
2018-10-12T14:50:58.383Z,23.30
2018-10-12T14:53:26.877Z,23.30
2018-10-12T14:55:55.280Z,23.30
2018-10-12T14:58:23.977Z,23.30
2018-10-12T15:00:52.397Z,23.20
2018-10-12T15:03:20.816Z,23.20
2018-10-12T15:05:49.432Z,23.20
2018-10-12T15:08:17.914Z,23.10
2018-10-12T15:10:46.323Z,23.10
2018-10-12T15:13:15.017Z,23.10
2018-10-12T15:15:43.452Z,23.00
2018-10-12T15:18:11.868Z,23.00
2018-10-12T15:20:40.317Z,23.00
2018-10-12T15:23:08.748Z,23.00
2018-10-12T15:25:37.257Z,23.00
2018-10-12T15:28:05.747Z,23.00
2018-10-12T15:30:34.184Z,23.00
2018-10-12T15:33:02.668Z,22.90
2018-10-12T15:35:31.247Z,22.90
2018-10-12T15:38:00.071Z,22.90
2018-10-12T15:40:28.552Z,22.90
2018-10-12T15:42:57.097Z,22.80
2018-10-12T15:45:25.501Z,22.70
2018-10-12T15:47:53.948Z,22.70
2018-10-12T15:50:23.592Z,22.60
2018-10-12T15:52:52.476Z,22.60
2018-10-12T15:55:20.987Z,22.50
2018-10-12T15:57:50.060Z,22.40
2018-10-12T16:00:18.451Z,22.30
2018-10-12T16:02:46.905Z,22.30
2018-10-12T16:05:15.500Z,22.20
2018-10-12T16:07:44.085Z,22.20
2018-10-12T16:10:12.604Z,22.10
2018-10-12T16:12:41.089Z,22.00
2018-10-12T16:15:09.522Z,22.00
2018-10-12T16:17:37.945Z,21.90
2018-10-12T16:20:06.616Z,21.80
2018-10-12T16:22:35.171Z,21.80
2018-10-12T16:25:15.241Z,21.80
2018-10-12T16:27:43.644Z,21.70
2018-10-12T16:30:12.068Z,21.70
2018-10-12T16:32:40.706Z,21.70
2018-10-12T16:35:09.120Z,21.70
2018-10-12T16:37:37.579Z,21.60
2018-10-12T16:40:06.345Z,21.50
2018-10-12T16:42:34.764Z,21.50
2018-10-12T16:45:03.212Z,21.40
2018-10-12T16:47:31.868Z,21.30
2018-10-12T16:50:01.207Z,21.30
2018-10-12T16:52:30.245Z,21.20
2018-10-12T16:54:58.892Z,21.20
2018-10-12T16:57:35.095Z,21.10
2018-10-12T17:00:03.857Z,21.10
2018-10-12T17:02:32.304Z,21.00
2018-10-12T17:05:01.379Z,21.00
2018-10-12T17:07:29.840Z,21.00
2018-10-12T17:09:58.283Z,21.00
2018-10-12T17:12:26.803Z,21.00
2018-10-12T17:14:55.382Z,20.90
2018-10-12T17:17:23.800Z,20.90
2018-10-12T17:19:52.230Z,20.90
2018-10-12T17:22:20.781Z,20.90
2018-10-12T17:24:49.188Z,20.90
2018-10-12T17:27:17.713Z,20.80
2018-10-12T17:29:46.336Z,20.80
2018-10-12T17:32:14.784Z,20.70
2018-10-12T17:34:43.187Z,20.70
2018-10-12T17:37:11.768Z,20.60
2018-10-12T17:39:40.196Z,20.60
2018-10-12T17:42:14.221Z,20.50
2018-10-12T17:44:42.656Z,20.40
2018-10-12T17:47:11.158Z,20.40
2018-10-12T17:49:40.220Z,20.40
2018-10-12T17:52:08.777Z,20.30
2018-10-12T17:54:37.504Z,20.30
2018-10-12T17:57:06.629Z,20.20
2018-10-12T17:59:35.637Z,20.20
2018-10-12T18:02:05.504Z,20.10
2018-10-12T18:04:34.567Z,20.10
2018-10-12T18:07:04.040Z,20.10
2018-10-12T18:09:33.306Z,20.10
2018-10-12T18:12:02.711Z,20.00
2018-10-12T18:14:32.182Z,20.00
2018-10-12T18:17:00.834Z,20.00
2018-10-12T18:19:29.693Z,20.00
2018-10-12T18:21:58.289Z,20.00
2018-10-12T18:24:26.815Z,20.00
2018-10-12T18:26:56.663Z,20.00
2018-10-12T18:29:25.334Z,20.00
2018-10-12T18:31:54.027Z,19.90
2018-10-12T18:34:22.925Z,19.90
2018-10-12T18:36:51.607Z,19.90
2018-10-12T18:39:20.545Z,19.80
2018-10-12T18:41:49.518Z,19.80
2018-10-12T18:44:18.305Z,19.80
2018-10-12T18:46:47.195Z,19.70
2018-10-12T18:49:16.095Z,19.70
2018-10-12T18:51:44.532Z,19.60
2018-10-12T18:54:13.923Z,19.60
2018-10-12T18:56:42.726Z,19.60
2018-10-12T18:59:11.372Z,19.50
2018-10-12T19:01:39.863Z,19.50
2018-10-12T19:04:08.652Z,19.50
2018-10-12T19:06:37.424Z,19.50
2018-10-12T19:09:08.649Z,19.50
2018-10-12T19:11:38.185Z,19.50
2018-10-12T19:14:06.959Z,19.40
2018-10-12T19:16:36.688Z,19.40
2018-10-12T19:19:06.417Z,19.40
2018-10-12T19:21:36.261Z,19.30
2018-10-12T19:24:04.978Z,19.30
2018-10-12T19:26:33.414Z,19.20
2018-10-12T19:29:01.865Z,19.20
2018-10-12T19:31:30.369Z,19.20
2018-10-12T19:33:58.716Z,19.10
2018-10-12T19:36:27.316Z,19.10
2018-10-12T19:38:55.732Z,19.00
2018-10-12T19:41:24.161Z,19.00
2018-10-12T19:43:52.663Z,18.90
2018-10-12T19:46:21.151Z,19.00
2018-10-12T19:48:49.663Z,18.90
2018-10-12T19:51:18.204Z,18.90
2018-10-12T19:53:46.640Z,18.90
2018-10-12T19:56:15.128Z,18.80
2018-10-12T19:58:43.612Z,18.80
2018-10-12T20:01:12.048Z,18.70
2018-10-12T20:03:40.459Z,18.70
2018-10-12T20:06:09.235Z,18.70
2018-10-12T20:08:37.684Z,18.60
2018-10-12T20:11:06.636Z,18.60
2018-10-12T20:13:35.232Z,18.50
2018-10-12T20:16:03.804Z,19.00
2018-10-12T20:18:32.252Z,18.50
2018-10-12T20:21:00.936Z,18.50
2018-10-12T20:23:29.453Z,18.40
2018-10-12T20:25:57.887Z,18.40
2018-10-12T20:28:26.364Z,18.40
2018-10-12T20:30:54.844Z,18.30
2018-10-12T20:33:23.269Z,18.30
2018-10-12T20:35:51.710Z,18.30
2018-10-12T20:38:20.131Z,18.20
2018-10-12T20:40:48.580Z,18.20
2018-10-12T20:43:17.205Z,18.20
2018-10-12T20:45:45.745Z,18.20
2018-10-12T20:48:14.176Z,18.10
2018-10-12T20:50:42.910Z,18.10
2018-10-12T20:53:11.297Z,18.00
2018-10-12T20:55:39.755Z,18.00
2018-10-12T20:58:12.610Z,18.00
2018-10-12T21:00:41.056Z,18.00
2018-10-12T21:03:09.480Z,18.00
2018-10-12T21:05:37.972Z,18.00
2018-10-12T21:08:06.545Z,18.00
2018-10-12T21:10:34.963Z,18.00
2018-10-12T21:13:03.588Z,18.00
2018-10-12T21:15:32.077Z,18.00
2018-10-12T21:18:00.574Z,18.00
2018-10-12T21:20:29.156Z,18.00
2018-10-12T21:22:57.904Z,17.90
2018-10-12T21:25:26.299Z,17.90
2018-10-12T21:27:55.002Z,17.90
2018-10-12T21:30:23.438Z,17.90
2018-10-12T21:32:51.846Z,17.90
2018-10-12T21:35:20.312Z,17.90
2018-10-12T21:37:48.707Z,17.90
2018-10-12T21:40:17.149Z,17.90
2018-10-12T21:42:45.757Z,17.90
2018-10-12T21:45:14.173Z,17.80
2018-10-12T21:47:42.610Z,17.90
2018-10-12T21:50:11.244Z,17.80
2018-10-12T21:52:39.689Z,17.80
2018-10-12T21:55:09.047Z,17.80
2018-10-12T21:57:37.560Z,17.70
2018-10-12T22:00:06.323Z,17.70
2018-10-12T22:02:34.720Z,17.70
2018-10-12T22:05:03.385Z,17.60
2018-10-12T22:07:31.826Z,17.60
2018-10-12T22:10:00.246Z,17.60
2018-10-12T22:12:28.860Z,17.60
2018-10-12T22:14:57.315Z,17.50
2018-10-12T22:17:25.749Z,17.50
2018-10-12T22:19:54.510Z,17.50
2018-10-12T22:22:22.962Z,17.50
2018-10-12T22:24:51.606Z,17.40
2018-10-12T22:27:20.173Z,17.40
2018-10-12T22:29:48.570Z,17.40
2018-10-12T22:32:16.972Z,17.40
2018-10-12T22:34:45.599Z,17.30
2018-10-12T22:37:14.073Z,17.30
2018-10-12T22:39:43.213Z,17.30
2018-10-12T22:42:13.020Z,17.30
2018-10-12T22:44:41.521Z,17.30
2018-10-12T22:47:10.987Z,17.30
2018-10-12T22:49:40.036Z,17.20
2018-10-12T22:52:08.452Z,17.20
2018-10-12T22:54:37.027Z,17.20
2018-10-12T22:57:05.612Z,17.20
2018-10-12T22:59:34.055Z,17.20
2018-10-12T23:02:02.547Z,17.20
2018-10-12T23:04:31.159Z,17.10
2018-10-12T23:06:59.589Z,17.10
2018-10-12T23:09:28.016Z,17.10
2018-10-12T23:11:56.487Z,17.10
2018-10-12T23:14:24.915Z,17.10
2018-10-12T23:16:53.336Z,17.00
2018-10-12T23:19:21.939Z,17.00
2018-10-12T23:21:50.364Z,17.00
2018-10-12T23:24:18.772Z,17.00
2018-10-12T23:26:47.415Z,17.00
2018-10-12T23:29:15.812Z,16.90
2018-10-12T23:31:44.203Z,16.90
2018-10-12T23:34:12.866Z,16.90
2018-10-12T23:36:41.316Z,16.80
2018-10-12T23:39:10.107Z,16.80
2018-10-12T23:41:38.859Z,16.80
2018-10-12T23:44:07.348Z,16.70
2018-10-12T23:46:35.776Z,16.70
2018-10-12T23:49:04.432Z,16.70
2018-10-12T23:51:32.884Z,16.70
2018-10-12T23:54:01.396Z,16.70
2018-10-12T23:56:29.999Z,16.70
2018-10-12T23:58:58.412Z,16.70
